createdAt,value
2018-12-06T00:02:27.984Z,5.60
2018-12-06T00:04:57.321Z,4.85
2018-12-06T00:07:26.726Z,5.47
2018-12-06T00:09:56.074Z,5.03
2018-12-06T00:12:25.380Z,4.87
2018-12-06T00:15:10.287Z,5.13
2018-12-06T00:17:39.560Z,6.20
2018-12-06T00:20:09.052Z,5.17
2018-12-06T00:22:38.390Z,6.12
2018-12-06T00:25:07.830Z,5.83
2018-12-06T00:27:37.099Z,5.60
2018-12-06T00:30:23.391Z,15.93
2018-12-06T00:32:52.697Z,26.80
2018-12-06T00:35:22.459Z,29.95
2018-12-06T00:37:52.505Z,27.65
2018-12-06T00:40:22.477Z,16.20
2018-12-06T00:42:52.430Z,12.07
2018-12-06T00:45:22.462Z,9.20
2018-12-06T00:47:52.544Z,8.00
2018-12-06T00:50:22.639Z,9.23
2018-12-06T00:52:52.514Z,11.30
2018-12-06T00:55:22.595Z,8.63
2018-12-06T00:57:52.577Z,9.95
2018-12-06T01:00:22.671Z,9.98
2018-12-06T01:02:52.621Z,12.20
2018-12-06T01:05:22.849Z,13.72
2018-12-06T01:07:52.718Z,11.85
2018-12-06T01:10:22.673Z,16.05
2018-12-06T01:12:52.808Z,13.30
2018-12-06T01:15:22.836Z,9.85
2018-12-06T01:17:52.738Z,8.80
2018-12-06T01:20:22.689Z,9.18
2018-12-06T01:22:51.991Z,8.27
2018-12-06T01:25:21.332Z,8.13
2018-12-06T01:27:50.605Z,7.87
2018-12-06T01:30:20.008Z,8.30
2018-12-06T01:32:49.285Z,8.13
2018-12-06T01:35:18.656Z,7.80
2018-12-06T01:37:47.972Z,8.40
2018-12-06T01:40:17.260Z,8.03
2018-12-06T01:42:46.597Z,8.43
2018-12-06T01:45:15.881Z,9.83
2018-12-06T01:47:45.178Z,8.83
2018-12-06T01:50:14.462Z,9.63
2018-12-06T01:52:43.728Z,9.43
2018-12-06T01:55:13.156Z,9.23
2018-12-06T01:57:42.441Z,10.17
2018-12-06T02:00:12.196Z,9.87
2018-12-06T02:02:41.477Z,9.85
2018-12-06T02:05:10.945Z,10.60
2018-12-06T02:07:40.274Z,10.57
2018-12-06T02:10:09.806Z,10.43
2018-12-06T02:12:39.112Z,11.00
2018-12-06T02:15:15.054Z,10.97
2018-12-06T02:17:44.387Z,11.03
2018-12-06T02:20:13.683Z,10.97
2018-12-06T02:22:49.562Z,11.90
2018-12-06T02:25:18.871Z,11.23
2018-12-06T02:27:48.188Z,11.43
2018-12-06T02:30:17.492Z,11.57
2018-12-06T02:32:46.801Z,11.78
2018-12-06T02:35:16.129Z,11.73
2018-12-06T02:37:45.566Z,11.40
2018-12-06T02:40:15.095Z,11.50
2018-12-06T02:42:44.405Z,12.23
2018-12-06T02:45:13.938Z,12.13
2018-12-06T02:47:43.220Z,11.80
2018-12-06T02:50:12.583Z,11.90
2018-12-06T02:52:41.866Z,12.10
2018-12-06T02:55:11.237Z,12.33
2018-12-06T02:57:40.495Z,12.17
2018-12-06T03:00:09.962Z,13.17
2018-12-06T03:02:39.465Z,12.47
2018-12-06T03:05:08.901Z,13.40
2018-12-06T03:07:38.209Z,13.87
2018-12-06T03:10:07.792Z,13.70
2018-12-06T03:12:40.081Z,12.87
2018-12-06T03:15:09.575Z,13.93
2018-12-06T03:17:39.614Z,13.60
2018-12-06T03:20:09.169Z,13.32
2018-12-06T03:22:38.427Z,15.07
2018-12-06T03:25:07.958Z,13.83
2018-12-06T03:27:37.272Z,13.83
2018-12-06T03:30:07.207Z,13.67
2018-12-06T03:32:36.834Z,14.00
2018-12-06T03:35:06.143Z,13.90
2018-12-06T03:37:35.480Z,13.73
2018-12-06T03:40:05.792Z,13.70
2018-12-06T03:42:35.241Z,14.80
2018-12-06T03:45:04.796Z,14.90
2018-12-06T03:47:34.088Z,14.95
2018-12-06T03:50:03.498Z,14.33
2018-12-06T03:52:32.812Z,15.73
2018-12-06T03:55:02.133Z,15.95
2018-12-06T03:57:31.492Z,15.50
2018-12-06T04:00:00.763Z,15.83
2018-12-06T04:02:30.074Z,15.97
2018-12-06T04:04:59.385Z,15.70
2018-12-06T04:07:28.711Z,16.03
2018-12-06T04:09:58.102Z,14.90
2018-12-06T04:12:27.486Z,16.02
2018-12-06T04:14:57.552Z,15.90
2018-12-06T04:17:27.468Z,15.25
2018-12-06T04:19:57.724Z,16.05
2018-12-06T04:22:27.863Z,15.68
2018-12-06T04:24:57.654Z,16.25
2018-12-06T04:27:27.728Z,17.25
2018-12-06T04:29:57.749Z,16.05
2018-12-06T04:32:27.992Z,22.73
2018-12-06T04:34:57.686Z,18.25
2018-12-06T04:37:27.740Z,16.45
2018-12-06T04:39:57.835Z,16.82
2018-12-06T04:42:27.953Z,17.20
2018-12-06T04:44:57.712Z,16.55
2018-12-06T04:47:28.034Z,16.88
2018-12-06T04:49:58.096Z,17.45
2018-12-06T04:52:27.946Z,17.50
2018-12-06T04:54:57.929Z,17.23
2018-12-06T04:57:28.021Z,17.45
2018-12-06T04:59:58.442Z,16.47
2018-12-06T05:02:28.780Z,18.18
2018-12-06T05:04:58.615Z,18.62
2018-12-06T05:07:28.720Z,18.48
2018-12-06T05:09:58.691Z,18.23
2018-12-06T05:12:29.096Z,17.40
2018-12-06T05:14:59.076Z,18.50
2018-12-06T05:17:29.112Z,18.15
2018-12-06T05:19:59.143Z,19.32
2018-12-06T05:22:29.147Z,19.23
2018-12-06T05:24:59.379Z,19.12
2018-12-06T05:27:29.333Z,19.40
2018-12-06T05:29:59.311Z,18.60
2018-12-06T05:32:29.386Z,18.75
2018-12-06T05:34:59.343Z,18.90
2018-12-06T05:37:29.273Z,19.32
2018-12-06T05:39:59.417Z,20.17
2018-12-06T05:42:29.355Z,19.65
2018-12-06T05:44:59.342Z,19.52
2018-12-06T05:47:29.377Z,19.67
2018-12-06T05:49:59.317Z,20.90
2018-12-06T05:52:28.688Z,19.83
2018-12-06T05:54:58.001Z,20.43
2018-12-06T05:57:27.351Z,18.57
2018-12-06T05:59:56.687Z,19.60
2018-12-06T06:02:26.059Z,20.50
2018-12-06T06:04:55.513Z,19.43
2018-12-06T06:07:24.894Z,19.50
2018-12-06T06:09:54.157Z,20.20
2018-12-06T06:12:23.590Z,20.07
2018-12-06T06:14:53.031Z,20.20
2018-12-06T06:17:22.423Z,20.53
2018-12-06T06:19:51.804Z,21.00
2018-12-06T06:22:21.714Z,22.30
2018-12-06T06:24:52.470Z,22.07
2018-12-06T06:27:21.791Z,21.90
2018-12-06T06:29:51.074Z,21.20
2018-12-06T06:32:20.470Z,23.87
2018-12-06T06:34:49.821Z,22.70
2018-12-06T06:37:19.233Z,23.98
2018-12-06T06:39:51.459Z,23.63
2018-12-06T06:42:20.767Z,32.08
2018-12-06T06:44:50.101Z,26.63
2018-12-06T06:47:19.492Z,24.37
2018-12-06T06:49:48.778Z,24.70
2018-12-06T06:52:18.088Z,24.67
2018-12-06T06:54:47.457Z,23.23
2018-12-06T06:57:16.758Z,24.47
2018-12-06T06:59:49.041Z,24.10
2018-12-06T07:02:18.468Z,23.53
2018-12-06T07:04:47.855Z,23.20
2018-12-06T07:07:17.294Z,24.30
2018-12-06T07:09:46.751Z,23.77
2018-12-06T07:12:16.005Z,24.43
2018-12-06T07:14:45.303Z,25.03
2018-12-06T07:17:15.279Z,24.23
2018-12-06T07:19:44.663Z,24.52
2018-12-06T07:22:14.072Z,23.55
2018-12-06T07:24:43.401Z,24.93
2018-12-06T07:27:12.681Z,26.47
2018-12-06T07:29:42.026Z,25.20
2018-12-06T07:32:11.558Z,25.63
2018-12-06T07:34:40.891Z,26.63
2018-12-06T07:37:10.186Z,25.50
2018-12-06T07:39:39.507Z,27.80
2018-12-06T07:42:08.799Z,27.65
2018-12-06T07:44:38.110Z,28.40
2018-12-06T07:47:07.388Z,28.57
2018-12-06T07:49:36.692Z,28.52
2018-12-06T07:52:06.059Z,29.33
2018-12-06T07:54:35.394Z,28.50
2018-12-06T07:57:04.729Z,28.20
2018-12-06T07:59:34.205Z,29.00
2018-12-06T08:02:03.539Z,28.42
2018-12-06T08:04:32.923Z,30.10
2018-12-06T08:07:02.669Z,29.63
2018-12-06T08:09:32.552Z,31.90
2018-12-06T08:12:02.981Z,32.30
2018-12-06T08:14:32.853Z,32.25
2018-12-06T08:17:02.915Z,33.25
2018-12-06T08:19:32.948Z,34.13
2018-12-06T08:22:02.961Z,33.90
2018-12-06T08:24:33.377Z,35.43
2018-12-06T08:27:03.340Z,34.45
2018-12-06T08:29:33.398Z,33.35
2018-12-06T08:32:03.432Z,33.18
2018-12-06T08:34:33.380Z,34.55
2018-12-06T08:37:03.461Z,34.65
2018-12-06T08:39:33.592Z,33.88
2018-12-06T08:42:03.712Z,34.43
2018-12-06T08:44:33.632Z,37.13
2018-12-06T08:47:03.539Z,35.35
2018-12-06T08:49:33.544Z,35.75
2018-12-06T08:52:03.979Z,35.70
2018-12-06T08:54:33.896Z,36.77
2018-12-06T08:57:04.074Z,38.28
2018-12-06T08:59:33.810Z,36.83
2018-12-06T09:02:04.017Z,38.13
2018-12-06T09:04:33.914Z,38.02
2018-12-06T09:07:03.984Z,38.05
2018-12-06T09:09:33.958Z,37.58
2018-12-06T09:12:04.088Z,37.42
2018-12-06T09:14:33.929Z,37.35
2018-12-06T09:17:03.261Z,41.03
2018-12-06T09:19:32.550Z,38.47
2018-12-06T09:22:01.981Z,41.23
2018-12-06T09:24:31.271Z,40.20
2018-12-06T09:27:00.616Z,41.83
2018-12-06T09:29:29.950Z,39.63
2018-12-06T09:31:59.264Z,37.97
2018-12-06T09:34:28.583Z,39.67
2018-12-06T09:36:57.951Z,38.73
2018-12-06T09:39:27.284Z,37.60
2018-12-06T09:41:56.571Z,39.93
2018-12-06T09:44:25.945Z,37.67
2018-12-06T09:46:55.554Z,39.27
2018-12-06T09:49:24.880Z,38.20
2018-12-06T09:51:54.167Z,38.40
2018-12-06T09:54:23.450Z,37.63
2018-12-06T09:56:52.786Z,35.20
2018-12-06T09:59:22.094Z,37.40
2018-12-06T10:01:51.502Z,36.13
2018-12-06T10:04:20.804Z,37.13
2018-12-06T10:06:50.215Z,36.53
2018-12-06T10:09:19.514Z,35.43
2018-12-06T10:11:48.878Z,36.30
2018-12-06T10:14:19.694Z,34.67
2018-12-06T10:16:49.294Z,36.83
2018-12-06T10:19:18.668Z,35.30
2018-12-06T10:21:47.978Z,35.13
2018-12-06T10:24:17.286Z,35.60
2018-12-06T10:26:46.658Z,36.87
2018-12-06T10:29:15.970Z,36.73
2018-12-06T10:31:45.272Z,37.00
2018-12-06T10:34:14.579Z,38.57
2018-12-06T10:36:45.450Z,37.00
2018-12-06T10:39:14.737Z,36.83
2018-12-06T10:41:44.381Z,35.23
2018-12-06T10:44:29.121Z,32.53
2018-12-06T10:46:58.478Z,34.07
2018-12-06T10:49:27.824Z,32.80
2018-12-06T10:51:57.165Z,33.63
2018-12-06T10:54:26.482Z,34.33
2018-12-06T10:56:55.938Z,34.53
2018-12-06T10:59:25.278Z,35.93
2018-12-06T11:01:59.899Z,37.50
2018-12-06T11:04:35.670Z,38.47
2018-12-06T11:07:07.276Z,37.30
2018-12-06T11:09:36.592Z,38.07
2018-12-06T11:12:06.095Z,40.47
2018-12-06T11:14:35.437Z,38.67
2018-12-06T11:17:04.913Z,38.47
2018-12-06T11:19:34.391Z,37.67
2018-12-06T11:22:03.917Z,37.20
2018-12-06T11:24:35.800Z,38.27
2018-12-06T11:27:05.132Z,41.87
2018-12-06T11:29:34.535Z,39.13
2018-12-06T11:32:03.826Z,40.03
2018-12-06T11:34:33.150Z,40.00
2018-12-06T11:37:02.483Z,39.17
2018-12-06T11:39:31.763Z,39.90
2018-12-06T11:42:01.137Z,37.87
2018-12-06T11:44:30.455Z,38.70
2018-12-06T11:46:59.803Z,38.60
2018-12-06T11:49:29.107Z,38.40
2018-12-06T11:51:58.399Z,39.05
2018-12-06T11:54:27.716Z,37.10
2018-12-06T11:56:57.006Z,39.60
2018-12-06T11:59:26.344Z,40.08
2018-12-06T12:01:55.776Z,38.50
2018-12-06T12:04:25.131Z,37.33
2018-12-06T12:06:54.464Z,36.97
2018-12-06T12:09:23.726Z,39.30
2018-12-06T12:12:35.570Z,38.90
2018-12-06T12:15:05.621Z,39.23
2018-12-06T12:17:34.976Z,36.47
2018-12-06T12:20:05.534Z,37.27
2018-12-06T12:22:35.003Z,39.23
2018-12-06T12:25:04.292Z,37.33
2018-12-06T12:27:33.624Z,39.03
2018-12-06T12:30:02.912Z,39.30
2018-12-06T12:32:32.278Z,40.20
2018-12-06T12:35:01.603Z,39.85
2018-12-06T12:37:31.008Z,41.63
2018-12-06T12:40:00.343Z,42.27
2018-12-06T12:42:29.688Z,41.23
2018-12-06T12:44:58.951Z,41.27
2018-12-06T12:47:28.348Z,41.57
2018-12-06T12:49:57.677Z,41.33
2018-12-06T12:52:27.032Z,42.30
2018-12-06T12:54:56.310Z,40.70
2018-12-06T12:57:25.646Z,39.87
2018-12-06T12:59:55.830Z,41.33
2018-12-06T13:02:25.168Z,43.25
2018-12-06T13:04:54.473Z,45.13
2018-12-06T13:07:23.835Z,44.23
2018-12-06T13:09:53.141Z,45.30
2018-12-06T13:12:22.781Z,47.75
2018-12-06T13:14:52.070Z,44.37
2018-12-06T13:17:21.518Z,43.47
2018-12-06T13:19:50.945Z,42.50
2018-12-06T13:22:20.288Z,42.73
2018-12-06T13:24:49.573Z,42.40
2018-12-06T13:27:18.926Z,39.10
2018-12-06T13:29:48.215Z,42.00
2018-12-06T13:32:17.580Z,41.13
2018-12-06T13:34:46.893Z,41.53
2018-12-06T13:37:16.199Z,40.28
2018-12-06T13:39:45.572Z,43.27
2018-12-06T13:42:15.147Z,42.53
2018-12-06T13:44:44.477Z,41.47
2018-12-06T13:47:13.823Z,41.80
2018-12-06T13:49:43.140Z,41.90
2018-12-06T13:52:13.153Z,43.55
2018-12-06T13:54:49.443Z,40.03
2018-12-06T13:57:21.990Z,43.17
2018-12-06T13:59:51.448Z,42.40
2018-12-06T14:02:20.810Z,43.37
2018-12-06T14:04:50.157Z,42.23
2018-12-06T14:07:19.479Z,39.87
2018-12-06T14:09:48.790Z,41.50
2018-12-06T14:12:18.157Z,40.37
2018-12-06T14:14:47.497Z,38.73
2018-12-06T14:17:16.845Z,41.83
2018-12-06T14:19:46.200Z,40.93
2018-12-06T14:22:15.556Z,38.87
2018-12-06T14:24:44.840Z,38.43
2018-12-06T14:27:14.471Z,39.35
2018-12-06T14:29:44.375Z,36.80
2018-12-06T14:32:14.374Z,39.60
2018-12-06T14:34:44.406Z,37.98
2018-12-06T14:37:14.364Z,37.43
2018-12-06T14:39:44.493Z,36.63
2018-12-06T14:42:14.457Z,37.60
2018-12-06T14:44:44.540Z,36.55
2018-12-06T14:47:18.795Z,35.15
2018-12-06T14:49:48.128Z,35.13
2018-12-06T14:52:17.455Z,33.55
2018-12-06T14:54:46.787Z,32.07
2018-12-06T14:57:16.078Z,32.23
2018-12-06T14:59:45.434Z,31.87
2018-12-06T15:02:14.756Z,31.47
2018-12-06T15:04:44.786Z,31.60
2018-12-06T15:07:14.705Z,31.50
2018-12-06T15:09:44.712Z,30.68
2018-12-06T15:12:14.729Z,29.85
2018-12-06T15:14:44.793Z,30.62
2018-12-06T15:17:14.713Z,29.65
2018-12-06T15:19:44.740Z,28.62
2018-12-06T15:22:14.849Z,29.40
2018-12-06T15:24:44.203Z,28.23
2018-12-06T15:27:13.491Z,28.17
2018-12-06T15:29:43.188Z,28.13
2018-12-06T15:32:12.502Z,27.97
2018-12-06T15:34:41.763Z,28.00
2018-12-06T15:37:13.228Z,29.47
2018-12-06T15:39:42.591Z,27.93
2018-12-06T15:42:11.959Z,28.70
2018-12-06T15:44:41.422Z,27.62
2018-12-06T15:47:10.728Z,27.27
2018-12-06T15:49:40.066Z,24.27
2018-12-06T15:52:09.462Z,27.20
2018-12-06T15:54:38.763Z,27.27
2018-12-06T15:57:08.055Z,25.23
2018-12-06T15:59:37.343Z,25.97
2018-12-06T16:02:06.789Z,27.30
2018-12-06T16:04:36.105Z,26.37
2018-12-06T16:07:05.561Z,26.30
2018-12-06T16:09:34.860Z,25.27
2018-12-06T16:12:04.279Z,25.17
2018-12-06T16:14:33.623Z,25.90
2018-12-06T16:17:02.926Z,26.30
2018-12-06T16:19:32.337Z,25.77
2018-12-06T16:22:01.796Z,24.30
2018-12-06T16:24:31.204Z,26.50
2018-12-06T16:27:00.589Z,25.33
2018-12-06T16:29:29.911Z,24.17
2018-12-06T16:31:59.316Z,24.20
2018-12-06T16:34:28.693Z,26.85
2018-12-06T16:36:58.019Z,24.97
2018-12-06T16:39:27.423Z,23.83
2018-12-06T16:41:56.765Z,22.37
2018-12-06T16:44:26.106Z,21.95
2018-12-06T16:46:55.605Z,22.65
2018-12-06T16:49:25.198Z,22.67
2018-12-06T16:51:54.765Z,21.13
2018-12-06T16:54:24.373Z,21.80
2018-12-06T16:56:54.107Z,22.37
2018-12-06T16:59:23.495Z,21.70
2018-12-06T17:01:52.822Z,21.63
2018-12-06T17:04:22.180Z,22.97
2018-12-06T17:06:51.499Z,21.57
2018-12-06T17:09:22.156Z,22.20
2018-12-06T17:11:51.512Z,22.87
2018-12-06T17:14:24.382Z,22.97
2018-12-06T17:16:57.075Z,23.20
2018-12-06T17:19:26.456Z,22.80
2018-12-06T17:21:55.808Z,22.70
2018-12-06T17:24:25.176Z,23.17
2018-12-06T17:26:54.454Z,24.02
2018-12-06T17:29:23.767Z,25.47
2018-12-06T17:31:53.423Z,23.93
2018-12-06T17:34:22.692Z,24.00
2018-12-06T17:36:52.131Z,26.17
2018-12-06T17:39:21.839Z,24.95
2018-12-06T17:41:51.794Z,26.37
2018-12-06T17:44:21.880Z,28.70
2018-12-06T17:46:53.126Z,28.30
2018-12-06T17:49:22.487Z,27.97
2018-12-06T17:56:55.576Z,26.27
2018-12-06T17:59:24.939Z,25.27
2018-12-06T18:01:54.327Z,26.93
2018-12-06T18:04:23.619Z,26.40
2018-12-06T18:06:53.584Z,27.20
2018-12-06T18:09:23.642Z,27.32
2018-12-06T18:11:53.640Z,25.77
2018-12-06T18:14:23.585Z,26.82
2018-12-06T18:16:53.736Z,26.57
2018-12-06T18:19:23.768Z,27.15
2018-12-06T18:21:53.641Z,29.23
2018-12-06T18:24:23.606Z,27.48
2018-12-06T18:26:53.816Z,28.15
2018-12-06T18:29:23.553Z,27.60
2018-12-06T18:31:53.712Z,28.02
2018-12-06T18:34:23.579Z,28.50
2018-12-06T18:36:53.653Z,29.90
2018-12-06T18:39:23.612Z,28.50
2018-12-06T18:41:53.710Z,27.93
2018-12-06T18:44:23.738Z,29.70
2018-12-06T18:46:53.868Z,29.25
2018-12-06T18:49:23.881Z,30.17
2018-12-06T18:51:53.958Z,30.40
2018-12-06T18:54:23.839Z,30.08
2018-12-06T18:57:01.669Z,29.63
2018-12-06T18:59:30.995Z,29.53
2018-12-06T19:02:00.461Z,29.45
2018-12-06T19:04:29.768Z,31.57
2018-12-06T19:06:59.226Z,30.27
2018-12-06T19:09:33.056Z,29.90
2018-12-06T19:12:02.527Z,32.03
2018-12-06T19:14:35.695Z,30.43
2018-12-06T19:17:05.376Z,28.63
2018-12-06T19:19:34.663Z,27.60
2018-12-06T19:22:04.044Z,29.02
2018-12-06T19:24:33.389Z,28.30
2018-12-06T19:27:02.789Z,25.87
2018-12-06T19:29:35.149Z,26.90
2018-12-06T19:32:04.563Z,26.27
2018-12-06T19:34:34.121Z,27.33
2018-12-06T19:37:03.420Z,28.97
2018-12-06T19:39:32.776Z,28.10
2018-12-06T19:42:02.118Z,30.23
2018-12-06T19:44:31.454Z,30.80
2018-12-06T19:47:00.784Z,30.37
2018-12-06T19:49:34.461Z,30.57
2018-12-06T19:52:07.634Z,31.30
2018-12-06T19:54:42.742Z,31.83
2018-12-06T19:57:18.659Z,32.80
2018-12-06T19:59:53.397Z,32.53
2018-12-06T20:02:29.366Z,30.97
2018-12-06T20:04:58.815Z,30.60
2018-12-06T20:07:28.628Z,32.27
2018-12-06T20:09:58.845Z,30.50
2018-12-06T20:12:28.197Z,30.67
2018-12-06T20:14:57.465Z,30.10
2018-12-06T20:17:27.483Z,30.35
2018-12-06T20:19:57.488Z,28.77
2018-12-06T20:22:27.648Z,29.90
2018-12-06T20:24:57.502Z,29.98
2018-12-06T20:27:27.514Z,29.45
2018-12-06T20:29:57.472Z,26.85
2018-12-06T20:32:27.603Z,29.45
2018-12-06T20:34:56.939Z,28.17
2018-12-06T20:37:26.195Z,28.67
2018-12-06T20:39:55.534Z,28.83
2018-12-06T20:42:24.790Z,27.90
2018-12-06T20:44:54.136Z,28.43
2018-12-06T20:47:23.446Z,29.27
2018-12-06T20:49:55.622Z,29.10
2018-12-06T20:52:24.960Z,31.10
2018-12-06T20:54:54.368Z,31.60
2018-12-06T20:57:23.692Z,32.00
2018-12-06T20:59:53.018Z,33.87
2018-12-06T21:02:22.323Z,35.97
2018-12-06T21:04:54.595Z,39.33
2018-12-06T21:07:23.855Z,39.70
2018-12-06T21:09:53.181Z,40.57
2018-12-06T21:12:22.569Z,41.37
2018-12-06T21:14:51.939Z,40.27
2018-12-06T21:17:21.250Z,39.33
2018-12-06T21:19:50.695Z,40.40
2018-12-06T21:24:46.554Z,38.87
2018-12-06T21:27:15.943Z,38.90
2018-12-06T21:29:48.031Z,38.50
2018-12-06T21:32:17.316Z,44.63
2018-12-06T21:34:46.643Z,39.20
2018-12-06T21:37:15.909Z,37.00
2018-12-06T21:39:45.252Z,36.53
2018-12-06T21:42:14.565Z,37.95
2018-12-06T21:44:43.871Z,35.88
2018-12-06T21:47:17.287Z,36.37
2018-12-06T21:49:46.631Z,35.37
2018-12-06T21:52:15.951Z,34.67
2018-12-06T21:54:45.287Z,34.63
2018-12-06T21:57:14.590Z,33.95
2018-12-06T21:59:43.935Z,34.78
2018-12-06T22:02:24.685Z,35.03
2018-12-06T22:04:54.151Z,34.60
2018-12-06T22:07:23.477Z,32.10
2018-12-06T22:09:52.946Z,31.20
2018-12-06T22:12:22.250Z,32.17
2018-12-06T22:14:51.547Z,31.30
2018-12-06T22:17:27.588Z,30.83
2018-12-06T22:19:56.885Z,29.70
2018-12-06T22:22:26.226Z,31.30
2018-12-06T22:24:55.616Z,28.47
2018-12-06T22:27:24.946Z,27.53
2018-12-06T22:29:54.218Z,29.50
2018-12-06T22:32:23.486Z,30.17
2018-12-06T22:34:53.418Z,29.10
2018-12-06T22:37:22.742Z,28.40
2018-12-06T22:39:52.092Z,29.17
2018-12-06T22:42:21.379Z,28.23
2018-12-06T22:44:51.154Z,30.07
2018-12-06T22:47:20.685Z,28.10
2018-12-06T22:49:49.982Z,28.20
2018-12-06T22:52:19.306Z,29.93
2018-12-06T22:54:49.683Z,28.17
2018-12-06T22:57:19.155Z,28.25
2018-12-06T22:59:48.483Z,29.27
2018-12-06T23:02:17.945Z,27.03
2018-12-06T23:04:47.211Z,28.38
2018-12-06T23:07:16.607Z,28.27
2018-12-06T23:09:45.890Z,28.90
2018-12-06T23:12:15.225Z,29.20
2018-12-06T23:14:44.558Z,29.47
2018-12-06T23:17:13.877Z,28.17
2018-12-06T23:19:43.192Z,28.57
2018-12-06T23:22:12.536Z,28.57
2018-12-06T23:24:41.889Z,30.20
2018-12-06T23:27:11.213Z,29.00
2018-12-06T23:29:40.559Z,30.33
2018-12-06T23:32:09.906Z,29.10
2018-12-06T23:34:39.316Z,29.18
2018-12-06T23:37:11.508Z,27.47
2018-12-06T23:39:40.825Z,28.30
2018-12-06T23:42:10.138Z,27.27
2018-12-06T23:44:39.450Z,27.43
2018-12-06T23:47:08.819Z,25.82
2018-12-06T23:49:38.142Z,25.23
2018-12-06T23:52:07.447Z,24.87
2018-12-06T23:54:36.714Z,25.27
2018-12-06T23:57:06.016Z,23.77
2018-12-06T23:59:35.327Z,23.10
